createdAt,value
2022-09-10T00:00:43.135Z,3.75
2022-09-10T00:06:47.171Z,7.05
2022-09-10T00:12:51.494Z,4.70
2022-09-10T00:18:57.308Z,4.70
2022-09-10T00:25:02.337Z,5.50
2022-09-10T00:31:07.499Z,8.50
2022-09-10T00:37:12.899Z,7.78
2022-09-10T00:43:18.796Z,7.03
2022-09-10T00:49:25.502Z,7.03
2022-09-10T00:55:31.696Z,4.15
2022-09-10T01:01:35.512Z,4.50
2022-09-10T01:07:39.175Z,6.20
2022-09-10T01:13:49.590Z,4.25
2022-09-10T01:20:11.050Z,6.25
2022-09-10T01:26:21.207Z,5.60
2022-09-10T01:32:28.785Z,7.10
2022-09-10T01:38:34.264Z,4.10
2022-09-10T01:44:42.726Z,7.38
2022-09-10T01:50:51.453Z,6.63
2022-09-10T01:56:58.513Z,6.25
2022-09-10T02:03:04.100Z,5.63
2022-09-10T02:09:09.568Z,5.78
2022-09-10T02:15:14.055Z,6.63
2022-09-10T02:21:17.849Z,5.85
2022-09-10T02:27:23.621Z,7.93
2022-09-10T02:33:27.324Z,7.25
2022-09-10T02:39:30.779Z,9.85
2022-09-10T02:45:36.659Z,10.18
2022-09-10T02:51:41.802Z,6.55
2022-09-10T02:57:45.430Z,8.07
2022-09-10T03:03:52.313Z,8.73
2022-09-10T03:09:55.649Z,8.40
2022-09-10T03:15:59.344Z,11.27
2022-09-10T03:22:04.309Z,12.15
2022-09-10T03:28:07.713Z,9.20
2022-09-10T03:34:12.642Z,9.68
2022-09-10T03:40:17.729Z,10.48
2022-09-10T03:46:21.069Z,11.32
2022-09-10T03:52:24.506Z,11.43
2022-09-10T03:58:29.469Z,10.20
2022-09-10T04:04:33.992Z,13.60
2022-09-10T04:10:37.779Z,11.00
2022-09-10T04:16:42.703Z,7.20
2022-09-10T04:22:46.436Z,10.43
2022-09-10T04:28:49.855Z,7.95
2022-09-10T04:34:55.031Z,12.45
2022-09-10T04:40:58.401Z,10.15
2022-09-10T04:47:01.784Z,12.15
2022-09-10T04:53:07.880Z,12.07
2022-09-10T04:59:11.814Z,11.45
2022-09-10T05:05:15.278Z,13.20
2022-09-10T05:11:20.375Z,12.98
2022-09-10T05:17:24.111Z,11.50
2022-09-10T05:23:27.433Z,12.73
2022-09-10T05:29:32.099Z,12.25
2022-09-10T05:35:35.728Z,15.75
2022-09-10T05:41:39.074Z,15.95
2022-09-10T05:47:43.884Z,12.30
2022-09-10T05:53:47.524Z,15.88
2022-09-10T05:59:50.853Z,10.85
2022-09-10T06:05:55.721Z,14.88
2022-09-10T06:11:59.320Z,14.90
2022-09-10T06:18:02.881Z,15.68
2022-09-10T06:24:07.979Z,17.60
2022-09-10T06:30:11.706Z,15.18
2022-09-10T06:36:15.632Z,13.50
2022-09-10T06:42:20.344Z,12.43
2022-09-10T06:48:47.503Z,8.55
2022-09-10T06:54:51.561Z,14.48
2022-09-10T07:00:56.309Z,13.40
2022-09-10T07:07:00.830Z,14.50
2022-09-10T07:13:04.198Z,15.82
2022-09-10T07:19:09.630Z,11.63
2022-09-10T07:25:13.002Z,13.32
2022-09-10T07:31:17.627Z,11.48
2022-09-10T07:37:22.593Z,12.20
2022-09-10T07:43:25.961Z,11.15
2022-09-10T07:49:30.237Z,10.35
2022-09-10T07:55:35.035Z,7.93
2022-09-10T08:01:38.379Z,8.77
2022-09-10T08:07:42.536Z,9.38
2022-09-10T08:13:48.728Z,8.90
2022-09-10T08:19:52.213Z,8.32
2022-09-10T08:25:55.578Z,4.63
2022-09-10T08:32:00.659Z,4.85
2022-09-10T08:38:04.372Z,4.78
2022-09-10T08:44:09.036Z,5.63
2022-09-10T08:50:20.301Z,5.13
2022-09-10T08:56:24.715Z,7.35
2022-09-10T09:02:48.335Z,5.57
2022-09-10T09:08:54.320Z,6.95
2022-09-10T09:15:08.673Z,6.22
2022-09-10T09:21:17.524Z,6.80
2022-09-10T09:27:22.528Z,5.88
2022-09-10T09:33:27.525Z,4.80
2022-09-10T09:39:32.788Z,6.18
2022-09-10T09:45:38.996Z,4.95
2022-09-10T09:51:43.096Z,5.18
2022-09-10T09:57:47.235Z,5.00
2022-09-10T10:03:53.609Z,5.25
2022-09-10T10:09:56.962Z,7.28
2022-09-10T10:16:15.533Z,3.83
2022-09-10T10:22:27.002Z,6.50
2022-09-10T10:28:30.388Z,3.47
2022-09-10T10:34:40.796Z,4.05
2022-09-10T10:40:48.652Z,5.55
2022-09-10T10:46:56.101Z,4.55
2022-09-10T10:53:14.579Z,3.45
2022-09-10T10:59:27.698Z,3.70
2022-09-10T11:05:32.450Z,3.10
2022-09-10T11:11:38.796Z,4.10
2022-09-10T11:17:47.294Z,5.85
2022-09-10T11:23:51.888Z,5.55
2022-09-10T11:29:57.899Z,3.60
2022-09-10T11:36:07.399Z,3.95
2022-09-10T11:42:15.280Z,4.38
2022-09-10T11:48:21.824Z,6.13
2022-09-10T11:54:29.030Z,4.78
2022-09-10T12:00:35.086Z,4.32
2022-09-10T12:06:43.208Z,3.53
2022-09-10T12:12:50.360Z,4.00
2022-09-10T12:18:55.453Z,3.30
2022-09-10T12:25:02.082Z,3.65
2022-09-10T12:31:06.904Z,4.88
2022-09-10T12:37:25.160Z,4.22
2022-09-10T12:43:47.275Z,4.15
2022-09-10T12:49:53.037Z,3.15
2022-09-10T12:56:02.295Z,5.10
2022-09-10T13:02:20.517Z,3.47
2022-09-10T13:08:27.451Z,2.60
2022-09-10T13:14:33.310Z,5.15
2022-09-10T13:20:36.915Z,3.08
2022-09-10T13:26:57.863Z,3.55
2022-09-10T13:33:06.104Z,3.50
2022-09-10T13:39:26.683Z,3.97
2022-09-10T13:45:33.306Z,4.13
2022-09-10T13:51:39.979Z,5.60
2022-09-10T13:57:45.517Z,7.95
2022-09-10T14:03:48.868Z,6.53
2022-09-10T14:09:56.788Z,5.28
2022-09-10T14:16:02.086Z,5.00
2022-09-10T14:22:09.823Z,4.63
2022-09-10T14:28:20.354Z,4.43
2022-09-10T14:34:27.789Z,4.72
2022-09-10T14:40:37.445Z,5.80
2022-09-10T14:46:53.109Z,3.05
2022-09-10T14:52:56.508Z,3.90
2022-09-10T14:59:01.091Z,4.57
2022-09-10T15:05:06.110Z,3.03
2022-09-10T15:11:14.512Z,3.03
2022-09-10T15:17:19.038Z,4.93
2022-09-10T15:23:23.772Z,3.40
2022-09-10T15:29:27.214Z,3.30
2022-09-10T15:35:31.115Z,4.80
2022-09-10T15:41:36.055Z,4.95
2022-09-10T15:47:41.932Z,3.58
2022-09-10T15:53:46.312Z,4.70
2022-09-10T15:59:51.430Z,4.88
2022-09-10T16:05:55.056Z,5.85
2022-09-10T16:11:58.878Z,6.22
2022-09-10T16:18:03.617Z,4.95
2022-09-10T16:24:07.872Z,3.47
2022-09-10T16:30:12.171Z,5.28
2022-09-10T16:36:17.366Z,3.97
2022-09-10T16:42:20.719Z,4.40
2022-09-10T16:48:24.051Z,4.53
2022-09-10T16:54:31.895Z,4.60
2022-09-10T17:00:35.257Z,4.18
2022-09-10T17:06:38.646Z,4.43
2022-09-10T17:12:43.923Z,3.97
2022-09-10T17:18:47.461Z,5.63
2022-09-10T17:24:50.838Z,6.43
2022-09-10T17:30:58.204Z,4.28
2022-09-10T17:37:01.671Z,4.85
2022-09-10T17:43:05.158Z,4.28
2022-09-10T17:49:09.976Z,4.70
2022-09-10T17:55:13.791Z,4.30
2022-09-10T18:01:23.087Z,5.65
2022-09-10T18:07:28.917Z,4.30
2022-09-10T18:13:32.863Z,5.15
2022-09-10T18:19:36.660Z,5.85
2022-09-10T18:25:46.676Z,4.22
2022-09-10T18:31:53.950Z,3.72
2022-09-10T18:37:57.649Z,4.60
2022-09-10T18:44:04.135Z,6.20
2022-09-10T18:50:07.920Z,8.68
2022-09-10T18:56:12.442Z,8.40
2022-09-10T19:02:19.614Z,11.70
2022-09-10T19:08:23.099Z,9.65
2022-09-10T19:14:27.264Z,9.40
2022-09-10T19:20:31.994Z,7.10
2022-09-10T19:26:36.970Z,8.80
2022-09-10T19:32:40.427Z,10.07
2022-09-10T19:38:46.959Z,4.30
2022-09-10T19:44:50.303Z,5.72
2022-09-10T19:50:54.148Z,6.88
2022-09-10T19:56:59.303Z,5.32
2022-09-10T20:03:02.618Z,5.07
2022-09-10T20:09:06.839Z,9.50
2022-09-10T20:15:11.961Z,8.80
2022-09-10T20:21:16.519Z,5.97
2022-09-10T20:27:20.104Z,14.85
2022-09-10T20:33:25.051Z,9.63
2022-09-10T20:39:28.736Z,10.73
2022-09-10T20:45:32.668Z,7.97
2022-09-10T20:51:40.467Z,8.88
2022-09-10T20:57:43.840Z,10.07
2022-09-10T21:03:47.593Z,8.43
2022-09-10T21:09:52.520Z,8.90
2022-09-10T21:15:56.265Z,7.43
2022-09-10T21:21:59.662Z,6.22
2022-09-10T21:28:04.615Z,10.15
2022-09-10T21:34:08.095Z,10.35
2022-09-10T21:40:11.948Z,10.20
2022-09-10T21:46:16.732Z,11.52
2022-09-10T21:52:20.111Z,12.27
2022-09-10T21:58:23.804Z,10.52
2022-09-10T22:04:28.697Z,10.80
2022-09-10T22:10:32.375Z,13.20
2022-09-10T22:16:36.305Z,11.60
2022-09-10T22:22:40.995Z,14.82
2022-09-10T22:28:44.767Z,11.13
2022-09-10T22:34:49.199Z,10.70
2022-09-10T22:40:54.119Z,11.52
2022-09-10T22:46:57.703Z,10.45
2022-09-10T22:53:01.450Z,13.18
2022-09-10T22:59:06.547Z,11.23
2022-09-10T23:05:10.112Z,11.35
2022-09-10T23:11:15.237Z,12.35
2022-09-10T23:17:22.529Z,14.18
2022-09-10T23:23:26.095Z,13.75
2022-09-10T23:29:29.456Z,12.80
2022-09-10T23:35:34.301Z,16.52
2022-09-10T23:41:39.280Z,14.60
2022-09-10T23:47:42.599Z,15.38
2022-09-10T23:53:48.069Z,15.05
2022-09-10T23:59:51.430Z,16.70
